createdAt,value
2023-04-03T00:00:13.252Z,97.40
2023-04-03T00:02:43.128Z,97.40
2023-04-03T00:05:12.310Z,97.40
2023-04-03T00:07:41.102Z,97.40
2023-04-03T00:10:12.122Z,97.40
2023-04-03T00:12:42.202Z,97.40
2023-04-03T00:15:11.559Z,97.40
2023-04-03T00:17:40.675Z,97.40
2023-04-03T00:20:11.473Z,97.40
2023-04-03T00:22:40.240Z,97.40
2023-04-03T00:25:10.702Z,97.40
2023-04-03T00:27:43.096Z,97.40
2023-04-03T00:30:17.043Z,97.40
2023-04-03T00:32:46.327Z,97.40
2023-04-03T00:35:16.840Z,97.40
2023-04-03T00:37:45.462Z,97.40
2023-04-03T00:40:17.158Z,97.40
2023-04-03T00:42:49.791Z,97.40
2023-04-03T00:45:34.598Z,97.40
2023-04-03T00:48:06.747Z,97.40
2023-04-03T00:50:39.918Z,97.40
2023-04-03T00:53:11.853Z,97.40
2023-04-03T00:55:41.299Z,97.40
2023-04-03T00:58:12.775Z,97.40
2023-04-03T01:00:49.494Z,97.40
2023-04-03T01:03:17.860Z,97.40
2023-04-03T01:05:48.374Z,97.40
2023-04-03T01:08:16.903Z,97.40
2023-04-03T01:10:46.046Z,97.40
2023-04-03T01:13:27.715Z,97.40
2023-04-03T01:15:56.639Z,97.40
2023-04-03T01:18:27.335Z,97.40
2023-04-03T01:21:37.192Z,97.40
2023-04-03T01:24:26.368Z,97.40
2023-04-03T01:26:56.705Z,97.40
2023-04-03T01:29:27.290Z,97.40
2023-04-03T01:31:59.674Z,97.40
2023-04-03T01:34:31.018Z,97.40
2023-04-03T01:37:02.482Z,97.40
2023-04-03T01:39:33.757Z,97.40
2023-04-03T01:42:02.971Z,97.40
2023-04-03T01:44:36.714Z,97.40
2023-04-03T01:47:09.156Z,97.40
2023-04-03T01:49:40.040Z,97.40
2023-04-03T01:52:09.123Z,97.40
2023-04-03T01:54:37.870Z,97.40
2023-04-03T01:57:06.761Z,97.40
2023-04-03T01:59:35.667Z,97.40
2023-04-03T02:02:05.857Z,97.40
2023-04-03T02:04:35.050Z,97.40
2023-04-03T02:07:03.605Z,97.40
2023-04-03T02:09:32.608Z,97.40
2023-04-03T02:12:01.422Z,97.40
2023-04-03T02:14:31.091Z,97.40
2023-04-03T02:17:00.344Z,97.40
2023-04-03T02:19:30.897Z,97.40
2023-04-03T02:21:59.770Z,97.40
2023-04-03T02:24:28.794Z,97.40
2023-04-03T02:26:57.293Z,97.40
2023-04-03T02:29:26.907Z,97.40
2023-04-03T02:31:56.569Z,97.40
2023-04-03T02:34:28.525Z,97.40
2023-04-03T02:37:00.403Z,97.40
2023-04-03T02:39:29.455Z,97.40
2023-04-03T02:42:01.204Z,97.40
2023-04-03T02:44:31.033Z,97.40
2023-04-03T02:47:08.977Z,97.40
2023-04-03T02:49:37.467Z,97.40
2023-04-03T02:52:11.089Z,97.40
2023-04-03T02:54:40.987Z,97.40
2023-04-03T02:57:15.984Z,97.40
2023-04-03T02:59:45.323Z,97.40
2023-04-03T03:02:16.032Z,97.40
2023-04-03T03:04:46.131Z,97.40
2023-04-03T03:07:18.499Z,97.40
2023-04-03T03:09:50.284Z,97.40
2023-04-03T03:12:22.881Z,97.40
2023-04-03T03:14:55.425Z,97.40
2023-04-03T03:17:24.313Z,97.40
2023-04-03T03:19:53.370Z,97.40
2023-04-03T03:22:23.346Z,97.40
2023-04-03T03:24:52.989Z,97.40
2023-04-03T03:27:22.153Z,97.40
2023-04-03T03:29:52.744Z,97.40
2023-04-03T03:32:23.357Z,97.40
2023-04-03T03:34:54.718Z,97.40
2023-04-03T03:37:26.644Z,97.40
2023-04-03T03:39:55.522Z,97.40
2023-04-03T03:42:24.572Z,97.40
2023-04-03T03:44:53.539Z,97.40
2023-04-03T03:47:24.117Z,97.40
2023-04-03T03:49:52.798Z,97.40
2023-04-03T03:52:21.901Z,97.40
2023-04-03T03:54:53.110Z,97.40
2023-04-03T03:57:24.050Z,97.40
2023-04-03T03:59:54.092Z,97.40
2023-04-03T04:02:23.453Z,97.40
2023-04-03T04:04:52.857Z,97.40
2023-04-03T04:07:22.151Z,97.40
2023-04-03T04:09:52.922Z,97.40
2023-04-03T04:12:25.486Z,97.40
2023-04-03T04:14:57.104Z,97.40
2023-04-03T04:17:28.402Z,97.40
2023-04-03T04:19:58.156Z,97.40
2023-04-03T04:22:27.390Z,97.40
2023-04-03T04:24:58.192Z,97.40
2023-04-03T04:27:27.964Z,97.40
2023-04-03T04:29:59.426Z,97.40
2023-04-03T04:32:29.596Z,97.40
2023-04-03T04:34:58.942Z,97.40
2023-04-03T04:37:29.834Z,97.40
2023-04-03T04:40:04.205Z,97.40
2023-04-03T04:42:33.128Z,97.40
2023-04-03T04:45:01.795Z,97.40
2023-04-03T04:47:31.984Z,97.40
2023-04-03T04:50:00.498Z,97.40
2023-04-03T04:52:30.981Z,97.40
2023-04-03T04:55:03.827Z,97.40
2023-04-03T04:57:34.202Z,97.40
2023-04-03T05:00:03.097Z,97.40
2023-04-03T05:02:33.130Z,97.40
2023-04-03T05:05:04.406Z,97.40
2023-04-03T05:07:36.736Z,97.40
2023-04-03T05:10:10.375Z,97.40
2023-04-03T05:12:39.685Z,97.40
2023-04-03T05:15:14.709Z,97.40
2023-04-03T05:17:56.833Z,97.40
2023-04-03T05:20:26.040Z,97.40
2023-04-03T05:22:54.713Z,97.40
2023-04-03T05:25:27.175Z,97.40
2023-04-03T05:28:00.592Z,97.40
2023-04-03T05:30:29.624Z,97.40
2023-04-03T05:32:59.265Z,97.40
2023-04-03T05:35:45.399Z,97.40
2023-04-03T05:38:19.990Z,97.40
2023-04-03T05:40:52.676Z,97.40
2023-04-03T05:43:21.562Z,97.40
2023-04-03T05:45:53.094Z,97.40
2023-04-03T05:48:24.779Z,97.40
2023-04-03T05:50:57.338Z,97.40
2023-04-03T05:53:34.301Z,97.40
2023-04-03T05:56:07.834Z,97.40
2023-04-03T05:58:41.248Z,97.40
2023-04-03T06:01:10.350Z,97.40
2023-04-03T06:03:40.752Z,97.40
2023-04-03T06:06:15.663Z,97.40
2023-04-03T06:08:47.376Z,97.40
2023-04-03T06:11:22.818Z,97.40
2023-04-03T06:13:51.791Z,97.40
2023-04-03T06:16:20.912Z,97.40
2023-04-03T06:18:49.965Z,97.40
2023-04-03T06:21:19.943Z,97.40
2023-04-03T06:23:48.920Z,97.40
2023-04-03T06:26:18.250Z,97.40
2023-04-03T06:28:51.109Z,97.40
2023-04-03T06:31:20.203Z,97.40
2023-04-03T06:33:48.874Z,97.40
2023-04-03T06:36:22.324Z,97.40
2023-04-03T06:38:51.584Z,97.40
2023-04-03T06:41:22.663Z,97.40
2023-04-03T06:43:53.082Z,97.40
2023-04-03T06:46:24.688Z,97.40
2023-04-03T06:48:55.049Z,97.40
2023-04-03T06:51:26.957Z,97.40
2023-04-03T06:53:59.484Z,97.40
2023-04-03T06:56:31.430Z,97.40
2023-04-03T06:59:01.796Z,97.40
2023-04-03T07:01:34.438Z,97.40
2023-04-03T07:04:03.725Z,97.40
2023-04-03T07:06:37.446Z,97.40
2023-04-03T07:09:09.009Z,97.40
2023-04-03T07:11:44.470Z,93.50
2023-04-03T07:14:17.058Z,92.20
2023-04-03T07:16:48.245Z,90.50
2023-04-03T07:19:19.238Z,91.50
2023-04-03T07:21:48.065Z,91.30
2023-04-03T07:24:17.340Z,92.50
2023-04-03T07:26:46.440Z,93.40
2023-04-03T07:29:16.977Z,90.40
2023-04-03T07:31:46.360Z,88.40
2023-04-03T07:34:15.594Z,88.40
2023-04-03T07:36:44.100Z,86.20
2023-04-03T07:39:17.580Z,82.70
2023-04-03T07:41:46.975Z,80.40
2023-04-03T07:44:17.028Z,79.50
2023-04-03T07:46:46.020Z,80.60
2023-04-03T07:49:16.677Z,80.00
2023-04-03T07:51:45.560Z,80.20
2023-04-03T07:54:15.829Z,80.80
2023-04-03T07:56:45.314Z,79.90
2023-04-03T07:59:14.743Z,83.60
2023-04-03T08:01:48.914Z,84.70
2023-04-03T08:04:19.619Z,87.10
2023-04-03T08:06:51.187Z,89.00
2023-04-03T08:09:24.631Z,88.10
2023-04-03T08:11:56.534Z,89.70
2023-04-03T08:14:27.710Z,87.70
2023-04-03T08:16:57.535Z,86.90
2023-04-03T08:19:27.074Z,87.90
2023-04-03T08:21:57.824Z,86.00
2023-04-03T08:24:26.942Z,89.00
2023-04-03T08:26:55.498Z,90.40
2023-04-03T08:29:24.837Z,91.40
2023-04-03T08:31:57.391Z,90.70
2023-04-03T08:34:28.183Z,90.70
2023-04-03T08:36:57.264Z,88.10
2023-04-03T08:39:25.878Z,86.40
2023-04-03T08:41:54.984Z,87.30
2023-04-03T08:44:30.570Z,84.30
2023-04-03T08:47:14.370Z,84.70
2023-04-03T08:49:49.850Z,82.30
2023-04-03T08:52:24.961Z,81.40
2023-04-03T08:54:59.111Z,80.60
2023-04-03T08:57:34.392Z,83.20
2023-04-03T09:00:10.238Z,81.90
2023-04-03T09:02:48.140Z,83.40
2023-04-03T09:05:20.871Z,85.80
2023-04-03T09:07:59.875Z,87.30
2023-04-03T09:10:34.044Z,85.10
2023-04-03T09:13:09.470Z,85.30
2023-04-03T09:15:39.725Z,84.50
2023-04-03T09:18:21.441Z,86.60
2023-04-03T09:21:04.121Z,87.10
2023-04-03T09:23:42.708Z,87.50
2023-04-03T09:26:19.508Z,89.90
2023-04-03T09:28:51.319Z,88.80
2023-04-03T09:31:25.946Z,88.40
2023-04-03T09:34:00.858Z,87.50
2023-04-03T09:36:47.698Z,86.00
2023-04-03T09:39:20.357Z,88.20
2023-04-03T09:42:02.628Z,89.90
2023-04-03T09:44:37.594Z,91.50
2023-04-03T09:47:32.209Z,90.80
2023-04-03T09:50:24.960Z,91.10
2023-04-03T09:52:54.624Z,89.60
2023-04-03T09:55:32.229Z,90.40
2023-04-03T09:58:06.217Z,90.10
2023-04-03T10:00:38.875Z,87.50
2023-04-03T10:03:28.714Z,87.10
2023-04-03T10:06:04.956Z,86.60
2023-04-03T10:08:41.513Z,88.20
2023-04-03T10:11:17.058Z,87.30
2023-04-03T10:14:00.456Z,89.00
2023-04-03T10:16:40.316Z,88.60
2023-04-03T10:19:34.909Z,89.00
2023-04-03T10:22:19.442Z,88.80
2023-04-03T10:25:04.445Z,88.40
2023-04-03T10:27:49.821Z,87.10
2023-04-03T10:30:46.589Z,83.80
2023-04-03T10:33:37.013Z,82.10
2023-04-03T10:36:18.329Z,79.70
2023-04-03T10:39:06.070Z,82.50
2023-04-03T10:41:50.672Z,85.60
2023-04-03T10:44:41.470Z,87.30
2023-04-03T10:47:18.434Z,88.10
2023-04-03T10:49:59.906Z,90.30
2023-04-03T10:52:43.272Z,90.30
2023-04-03T10:55:31.160Z,90.30
2023-04-03T10:58:06.042Z,90.10
2023-04-03T11:00:42.499Z,90.30
2023-04-03T11:03:19.188Z,90.60
2023-04-03T11:05:51.910Z,90.70
2023-04-03T11:08:32.350Z,89.70
2023-04-03T11:11:07.132Z,89.90
2023-04-03T11:13:42.144Z,90.10
2023-04-03T11:16:12.403Z,90.10
2023-04-03T11:18:48.693Z,90.10
2023-04-03T11:21:23.801Z,90.70
2023-04-03T11:23:55.001Z,91.00
2023-04-03T11:26:31.037Z,90.90
2023-04-03T11:29:04.734Z,90.80
2023-04-03T11:31:48.548Z,90.40
2023-04-03T11:34:33.021Z,90.40
2023-04-03T11:37:04.257Z,90.60
2023-04-03T11:39:39.187Z,89.90
2023-04-03T11:42:38.244Z,89.90
2023-04-03T11:45:39.292Z,88.60
2023-04-03T11:48:23.516Z,86.40
2023-04-03T11:50:54.914Z,84.70
2023-04-03T11:53:40.989Z,85.10
2023-04-03T11:56:33.127Z,83.20
2023-04-03T11:59:28.426Z,82.70
2023-04-03T12:01:59.615Z,82.70
2023-04-03T12:04:33.130Z,84.30
2023-04-03T12:07:26.188Z,85.10
2023-04-03T12:10:31.865Z,86.00
2023-04-03T12:13:05.766Z,84.90
2023-04-03T12:15:58.818Z,84.30
2023-04-03T12:19:04.184Z,84.00
2023-04-03T12:22:23.624Z,84.70
2023-04-03T12:24:55.568Z,84.50
2023-04-03T12:27:44.591Z,82.50
2023-04-03T12:30:26.328Z,82.50
2023-04-03T12:33:26.608Z,82.50
2023-04-03T12:36:08.291Z,82.50
2023-04-03T12:39:06.047Z,82.50
2023-04-03T12:41:42.119Z,81.70
2023-04-03T12:44:45.856Z,81.40
2023-04-03T12:47:34.033Z,81.00
2023-04-03T12:50:06.308Z,80.80
2023-04-03T12:52:42.710Z,79.30
2023-04-03T12:55:30.121Z,78.20
2023-04-03T12:58:20.586Z,76.10
2023-04-03T13:00:53.727Z,74.80
2023-04-03T13:03:28.369Z,75.00
2023-04-03T13:06:05.736Z,75.00
2023-04-03T13:08:35.835Z,75.80
2023-04-03T13:11:14.464Z,76.70
2023-04-03T13:13:57.712Z,76.10
2023-04-03T13:16:27.263Z,78.20
2023-04-03T13:18:57.777Z,79.90
2023-04-03T13:21:31.140Z,80.80
2023-04-03T13:24:14.983Z,77.80
2023-04-03T13:26:48.090Z,75.60
2023-04-03T13:29:31.468Z,75.80
2023-04-03T13:32:04.321Z,77.30
2023-04-03T13:34:41.419Z,77.60
2023-04-03T13:37:25.285Z,75.90
2023-04-03T13:40:04.499Z,75.40
2023-04-03T13:42:40.064Z,74.50
2023-04-03T13:45:30.796Z,74.30
2023-04-03T13:48:24.812Z,70.00
2023-04-03T13:51:02.760Z,68.50
2023-04-03T13:53:38.848Z,69.10
2023-04-03T13:56:12.429Z,72.40
2023-04-03T13:58:43.037Z,69.80
2023-04-03T14:01:21.602Z,71.80
2023-04-03T14:03:57.477Z,72.80
2023-04-03T14:06:31.015Z,72.20
2023-04-03T14:09:06.364Z,72.00
2023-04-03T14:11:37.492Z,70.70
2023-04-03T14:14:16.075Z,71.10
2023-04-03T14:16:50.517Z,71.50
2023-04-03T14:19:24.189Z,70.40
2023-04-03T14:21:54.165Z,69.40
2023-04-03T14:24:26.137Z,70.70
2023-04-03T14:26:58.034Z,71.30
2023-04-03T14:29:27.722Z,68.90
2023-04-03T14:32:11.521Z,70.70
2023-04-03T14:34:47.204Z,71.10
2023-04-03T14:37:21.299Z,70.20
2023-04-03T14:39:53.989Z,70.20
2023-04-03T14:42:27.973Z,69.80
2023-04-03T14:44:58.298Z,71.10
2023-04-03T14:47:32.971Z,72.60
2023-04-03T14:50:10.460Z,72.00
2023-04-03T14:52:40.555Z,72.20
2023-04-03T14:55:14.163Z,70.70
2023-04-03T14:57:44.415Z,71.50
2023-04-03T15:00:23.829Z,73.20
2023-04-03T15:02:55.351Z,71.30
2023-04-03T15:05:26.323Z,70.90
2023-04-03T15:08:01.379Z,69.80
2023-04-03T15:10:34.202Z,68.90
2023-04-03T15:13:02.716Z,65.90
2023-04-03T15:15:32.805Z,67.20
2023-04-03T15:18:03.697Z,68.70
2023-04-03T15:20:34.932Z,66.80
2023-04-03T15:23:05.448Z,68.30
2023-04-03T15:25:46.320Z,67.70
2023-04-03T15:28:25.115Z,71.80
2023-04-03T15:30:54.338Z,70.00
2023-04-03T15:33:24.599Z,72.20
2023-04-03T15:36:02.664Z,73.70
2023-04-03T15:38:42.803Z,71.50
2023-04-03T15:41:17.166Z,71.10
2023-04-03T15:43:47.771Z,70.50
2023-04-03T15:46:16.819Z,69.10
2023-04-03T15:48:46.335Z,67.90
2023-04-03T15:51:18.063Z,68.50
2023-04-03T15:53:50.221Z,64.80
2023-04-03T15:56:25.196Z,64.80
2023-04-03T15:58:53.977Z,65.10
2023-04-03T16:01:26.049Z,67.90
2023-04-03T16:03:57.136Z,68.10
2023-04-03T16:06:30.816Z,69.40
2023-04-03T16:08:59.897Z,69.20
2023-04-03T16:11:39.724Z,69.80
2023-04-03T16:14:09.378Z,70.40
2023-04-03T16:16:41.568Z,70.20
2023-04-03T16:19:12.368Z,69.40
2023-04-03T16:21:42.667Z,68.90
2023-04-03T16:24:16.049Z,70.20
2023-04-03T16:26:52.157Z,69.80
2023-04-03T16:29:23.396Z,70.90
2023-04-03T16:31:53.285Z,71.70
2023-04-03T16:34:22.810Z,72.20
2023-04-03T16:36:54.325Z,73.70
2023-04-03T16:39:27.685Z,71.80
2023-04-03T16:41:59.019Z,70.20
2023-04-03T16:44:27.976Z,72.80
2023-04-03T16:47:01.071Z,72.40
2023-04-03T16:49:34.021Z,73.70
2023-04-03T16:52:02.744Z,74.30
2023-04-03T16:54:33.048Z,76.30
2023-04-03T16:57:04.635Z,75.40
2023-04-03T16:59:33.955Z,75.00
2023-04-03T17:02:06.071Z,75.00
2023-04-03T17:04:35.398Z,73.90
2023-04-03T17:07:08.623Z,75.60
2023-04-03T17:09:40.427Z,75.90
2023-04-03T17:12:13.199Z,77.30
2023-04-03T17:14:45.451Z,76.50
2023-04-03T17:17:15.445Z,74.80
2023-04-03T17:19:47.188Z,75.80
2023-04-03T17:22:16.910Z,76.10
2023-04-03T17:24:47.198Z,75.90
2023-04-03T17:27:18.350Z,77.60
2023-04-03T17:29:48.315Z,75.60
2023-04-03T17:32:17.666Z,77.10
2023-04-03T17:34:49.302Z,77.40
2023-04-03T17:37:20.647Z,78.40
2023-04-03T17:39:51.552Z,78.90
2023-04-03T17:42:27.294Z,78.90
2023-04-03T17:44:58.299Z,79.70
2023-04-03T17:47:30.926Z,79.10
2023-04-03T17:50:01.289Z,78.90
2023-04-03T17:52:32.243Z,79.10
2023-04-03T17:55:01.442Z,79.90
2023-04-03T17:57:31.807Z,81.20
2023-04-03T18:00:01.083Z,81.90
2023-04-03T18:02:42.305Z,82.10
2023-04-03T18:05:12.587Z,83.00
2023-04-03T18:07:42.230Z,84.10
2023-04-03T18:10:14.937Z,84.30
2023-04-03T18:12:45.206Z,84.90
2023-04-03T18:15:16.719Z,85.60
2023-04-03T18:17:46.526Z,86.00
2023-04-03T18:20:18.107Z,85.80
2023-04-03T18:22:46.601Z,86.90
2023-04-03T18:25:20.459Z,87.30
2023-04-03T18:27:51.834Z,87.70
2023-04-03T18:30:22.941Z,87.30
2023-04-03T18:32:51.580Z,86.00
2023-04-03T18:35:29.456Z,86.20
2023-04-03T18:38:01.359Z,87.10
2023-04-03T18:40:30.322Z,86.60
2023-04-03T18:43:02.021Z,86.20
2023-04-03T18:45:32.628Z,86.60
2023-04-03T18:48:01.513Z,86.00
2023-04-03T18:50:32.607Z,86.20
2023-04-03T18:53:03.531Z,86.00
2023-04-03T18:55:35.680Z,84.70
2023-04-03T18:58:05.925Z,84.70
2023-04-03T19:00:37.328Z,84.70
2023-04-03T19:03:08.486Z,84.10
2023-04-03T19:05:38.386Z,84.10
2023-04-03T19:08:08.970Z,84.10
2023-04-03T19:10:38.378Z,85.30
2023-04-03T19:13:12.155Z,86.00
2023-04-03T19:15:40.952Z,86.00
2023-04-03T19:18:11.518Z,86.00
2023-04-03T19:20:41.573Z,86.20
2023-04-03T19:23:10.846Z,86.80
2023-04-03T19:25:43.014Z,87.10
2023-04-03T19:28:17.020Z,87.30
2023-04-03T19:30:48.614Z,87.70
2023-04-03T19:33:22.195Z,87.70
2023-04-03T19:35:52.380Z,88.10
2023-04-03T19:38:21.383Z,89.00
2023-04-03T19:40:50.547Z,89.20
2023-04-03T19:43:20.503Z,89.70
2023-04-03T19:45:50.903Z,90.10
2023-04-03T19:48:20.955Z,90.10
2023-04-03T19:50:54.378Z,90.70
2023-04-03T19:53:29.310Z,90.80
2023-04-03T19:56:04.597Z,91.40
2023-04-03T19:58:44.634Z,91.50
2023-04-03T20:01:16.691Z,91.70
2023-04-03T20:03:46.225Z,92.20
2023-04-03T20:06:18.138Z,92.60
2023-04-03T20:08:50.876Z,92.50
2023-04-03T20:11:20.620Z,93.00
2023-04-03T20:13:52.250Z,93.20
2023-04-03T20:16:31.727Z,93.40
2023-04-03T20:19:01.396Z,93.70
2023-04-03T20:21:31.995Z,93.80
2023-04-03T20:24:03.136Z,93.90
2023-04-03T20:26:33.983Z,94.30
2023-04-03T20:29:08.209Z,94.60
2023-04-03T20:31:40.048Z,94.70
2023-04-03T20:34:11.059Z,94.80
2023-04-03T20:36:48.194Z,94.80
2023-04-03T20:39:19.661Z,95.10
2023-04-03T20:41:49.754Z,95.10
2023-04-03T20:44:25.731Z,95.40
2023-04-03T20:46:54.409Z,95.50
2023-04-03T20:49:26.578Z,95.60
2023-04-03T20:51:55.373Z,95.70
2023-04-03T20:54:24.814Z,95.80
2023-04-03T20:56:56.356Z,95.90
2023-04-03T20:59:26.708Z,95.90
2023-04-03T21:01:57.724Z,96.00
2023-04-03T21:04:35.654Z,95.90
2023-04-03T21:08:00.246Z,96.00
2023-04-03T21:11:26.483Z,95.70
2023-04-03T21:14:52.340Z,96.10
2023-04-03T21:17:21.600Z,95.50
2023-04-03T21:19:53.816Z,95.40
2023-04-03T21:22:27.280Z,95.70
2023-04-03T21:25:00.722Z,95.90
2023-04-03T21:27:33.454Z,96.00
2023-04-03T21:30:07.927Z,96.00
2023-04-03T21:32:39.484Z,96.20
2023-04-03T21:35:10.578Z,96.20
2023-04-03T21:37:39.226Z,96.50
2023-04-03T21:40:10.062Z,96.20
2023-04-03T21:42:38.561Z,96.90
2023-04-03T21:45:10.626Z,97.00
2023-04-03T21:47:42.168Z,96.90
2023-04-03T21:50:15.464Z,96.90
2023-04-03T21:52:44.020Z,96.90
2023-04-03T21:55:18.675Z,97.40
2023-04-03T21:57:58.189Z,97.20
2023-04-03T22:00:28.961Z,97.30
2023-04-03T22:03:10.031Z,97.30
2023-04-03T22:05:41.721Z,97.30
2023-04-03T22:08:14.469Z,97.40
2023-04-03T22:10:44.680Z,97.40
2023-04-03T22:13:17.088Z,97.40
2023-04-03T22:15:50.181Z,97.40
2023-04-03T22:18:19.402Z,97.40
2023-04-03T22:20:53.493Z,97.40
2023-04-03T22:23:22.852Z,97.40
2023-04-03T22:26:05.324Z,97.40
2023-04-03T22:28:40.426Z,97.40
2023-04-03T22:31:09.671Z,97.40
2023-04-03T22:33:39.512Z,97.40
2023-04-03T22:36:14.569Z,97.40
2023-04-03T22:38:47.983Z,97.40
2023-04-03T22:41:17.095Z,97.40
2023-04-03T22:43:46.222Z,97.40
2023-04-03T22:46:18.795Z,97.40
2023-04-03T22:48:48.296Z,97.40
2023-04-03T22:51:18.231Z,97.40
2023-04-03T22:53:47.823Z,97.40
2023-04-03T22:56:16.928Z,97.40
2023-04-03T22:58:48.587Z,97.40
2023-04-03T23:03:52.596Z,97.40
2023-04-03T23:06:23.428Z,97.40
2023-04-03T23:08:54.256Z,97.40
2023-04-03T23:11:24.210Z,97.40
2023-04-03T23:13:52.720Z,97.40
2023-04-03T23:16:29.136Z,97.40
2023-04-03T23:18:58.118Z,97.40
2023-04-03T23:21:31.921Z,97.40
2023-04-03T23:24:00.604Z,97.40
2023-04-03T23:26:30.069Z,97.40
2023-04-03T23:29:01.358Z,97.40
2023-04-03T23:31:30.375Z,97.40
2023-04-03T23:34:02.714Z,97.40
2023-04-03T23:36:34.679Z,97.40
2023-04-03T23:39:05.307Z,97.40
2023-04-03T23:41:34.033Z,97.40
2023-04-03T23:44:05.183Z,97.40
2023-04-03T23:46:35.825Z,97.40
2023-04-03T23:49:07.285Z,97.40
2023-04-03T23:51:38.989Z,97.40
2023-04-03T23:54:11.794Z,97.40
2023-04-03T23:56:43.123Z,97.40
2023-04-03T23:59:17.182Z,97.40
